sensor_id;sensor_type;location;lat;lon;timestamp;pressure;altitude;pressure_sealevel;temperature;humidity
78206;BME280;67480;48.920;12.880;2023-03-01T00:01:49;97794.19;;;0.63;47.66
78206;BME280;67480;48.920;12.880;2023-03-01T00:04:14;97791.88;;;0.55;47.95
78206;BME280;67480;48.920;12.880;2023-03-01T00:06:42;97788.63;;;0.53;47.65
78206;BME280;67480;48.920;12.880;2023-03-01T00:09:08;97791.84;;;0.43;47.86
78206;BME280;67480;48.920;12.880;2023-03-01T00:11:33;97784.50;;;0.45;48.40
78206;BME280;67480;48.920;12.880;2023-03-01T00:14:00;97788.72;;;0.46;48.14
78206;BME280;67480;48.920;12.880;2023-03-01T00:16:31;97785.63;;;0.61;47.52
78206;BME280;67480;48.920;12.880;2023-03-01T00:18:56;97779.75;;;0.47;47.72
78206;BME280;67480;48.920;12.880;2023-03-01T00:21:22;97790.38;;;0.71;47.56
78206;BME280;67480;48.920;12.880;2023-03-01T00:23:48;97777.81;;;0.54;47.81
78206;BME280;67480;48.920;12.880;2023-03-01T00:26:15;97776.22;;;0.53;47.92
78206;BME280;67480;48.920;12.880;2023-03-01T00:28:41;97784.72;;;0.55;47.58
78206;BME280;67480;48.920;12.880;2023-03-01T00:31:10;97780.34;;;0.61;47.52
78206;BME280;67480;48.920;12.880;2023-03-01T00:33:36;97786.81;;;0.65;47.58
78206;BME280;67480;48.920;12.880;2023-03-01T00:36:02;97786.34;;;0.68;47.08
78206;BME280;67480;48.920;12.880;2023-03-01T00:38:28;97787.03;;;0.64;47.66
78206;BME280;67480;48.920;12.880;2023-03-01T00:40:53;97778.19;;;0.70;47.59
78206;BME280;67480;48.920;12.880;2023-03-01T00:43:19;97776.34;;;0.70;47.71
78206;BME280;67480;48.920;12.880;2023-03-01T00:45:44;97774.69;;;0.57;47.51
78206;BME280;67480;48.920;12.880;2023-03-01T00:48:10;97777.22;;;0.52;47.37
78206;BME280;67480;48.920;12.880;2023-03-01T00:50:35;97768.03;;;0.55;47.52
78206;BME280;67480;48.920;12.880;2023-03-01T00:53:01;97774.47;;;0.47;47.81
78206;BME280;67480;48.920;12.880;2023-03-01T00:55:26;97771.47;;;0.43;47.66
78206;BME280;67480;48.920;12.880;2023-03-01T00:57:52;97767.56;;;0.58;47.53
78206;BME280;67480;48.920;12.880;2023-03-01T01:00:18;97767.09;;;0.61;47.34
78206;BME280;67480;48.920;12.880;2023-03-01T01:02:44;97761.91;;;0.54;47.19
78206;BME280;67480;48.920;12.880;2023-03-01T01:05:10;97760.31;;;0.53;47.34
78206;BME280;67480;48.920;12.880;2023-03-01T01:07:36;97752.00;;;0.50;47.47
78206;BME280;67480;48.920;12.880;2023-03-01T01:10:02;97751.31;;;0.42;47.06
78206;BME280;67480;48.920;12.880;2023-03-01T01:12:28;97750.53;;;0.42;47.38
78206;BME280;67480;48.920;12.880;2023-03-01T01:14:53;97736.56;;;0.35;47.78
78206;BME280;67480;48.920;12.880;2023-03-01T01:17:19;97737.84;;;0.44;47.50
78206;BME280;67480;48.920;12.880;2023-03-01T01:19:44;97734.97;;;0.46;47.63
78206;BME280;67480;48.920;12.880;2023-03-01T01:22:10;97733.69;;;0.48;47.76
78206;BME280;67480;48.920;12.880;2023-03-01T01:24:35;97730.97;;;0.55;47.16
78206;BME280;67480;48.920;12.880;2023-03-01T01:27:02;97727.72;;;0.53;46.91
78206;BME280;67480;48.920;12.880;2023-03-01T01:29:27;97716.88;;;0.54;46.71
78206;BME280;67480;48.920;12.880;2023-03-01T01:31:53;97709.78;;;0.55;46.62
78206;BME280;67480;48.920;12.880;2023-03-01T01:34:21;97707.47;;;0.58;47.13
78206;BME280;67480;48.920;12.880;2023-03-01T01:36:51;97710.56;;;0.55;47.51
78206;BME280;67480;48.920;12.880;2023-03-01T01:39:21;97702.38;;;0.57;47.59
78206;BME280;67480;48.920;12.880;2023-03-01T01:41:47;97698.34;;;0.54;47.29
78206;BME280;67480;48.920;12.880;2023-03-01T01:44:25;97696.25;;;0.56;47.59
78206;BME280;67480;48.920;12.880;2023-03-01T01:46:59;97696.50;;;0.43;47.90
78206;BME280;67480;48.920;12.880;2023-03-01T01:52:05;97701.44;;;0.39;47.80
78206;BME280;67480;48.920;12.880;2023-03-01T01:54:42;97692.22;;;0.30;47.74
78206;BME280;67480;48.920;12.880;2023-03-01T01:57:13;97689.34;;;0.32;47.77
78206;BME280;67480;48.920;12.880;2023-03-01T01:59:42;97691.31;;;0.24;47.60
78206;BME280;67480;48.920;12.880;2023-03-01T02:02:10;97682.91;;;0.28;47.82
78206;BME280;67480;48.920;12.880;2023-03-01T02:04:36;97679.69;;;0.37;47.71
78206;BME280;67480;48.920;12.880;2023-03-01T02:07:14;97672.66;;;0.31;47.75
78206;BME280;67480;48.920;12.880;2023-03-01T02:09:42;97679.69;;;0.25;47.96
78206;BME280;67480;48.920;12.880;2023-03-01T02:12:10;97681.06;;;0.16;48.83
78206;BME280;67480;48.920;12.880;2023-03-01T02:14:36;97675.53;;;0.06;49.01
78206;BME280;67480;48.920;12.880;2023-03-01T02:17:01;97687.16;;;0.05;48.58
78206;BME280;67480;48.920;12.880;2023-03-01T02:19:39;97675.44;;;-0.30;50.01
78206;BME280;67480;48.920;12.880;2023-03-01T02:22:19;97680.06;;;-0.25;48.96
78206;BME280;67480;48.920;12.880;2023-03-01T02:27:33;97678.13;;;-0.18;49.58
78206;BME280;67480;48.920;12.880;2023-03-01T02:30:02;97677.31;;;-0.18;50.00
78206;BME280;67480;48.920;12.880;2023-03-01T02:32:27;97665.69;;;-0.17;49.53
78206;BME280;67480;48.920;12.880;2023-03-01T02:34:55;97675.69;;;-0.19;49.37
78206;BME280;67480;48.920;12.880;2023-03-01T02:37:21;97675.00;;;-0.26;49.87
78206;BME280;67480;48.920;12.880;2023-03-01T02:39:55;97666.84;;;-0.25;49.54
78206;BME280;67480;48.920;12.880;2023-03-01T02:42:26;97674.78;;;-0.25;49.95
78206;BME280;67480;48.920;12.880;2023-03-01T02:44:55;97673.72;;;-0.24;49.58
78206;BME280;67480;48.920;12.880;2023-03-01T02:47:21;97672.34;;;-0.26;49.35
78206;BME280;67480;48.920;12.880;2023-03-01T02:49:46;97678.44;;;-0.26;49.55
78206;BME280;67480;48.920;12.880;2023-03-01T02:52:17;97675.56;;;-0.24;49.23
78206;BME280;67480;48.920;12.880;2023-03-01T02:55:04;97672.22;;;-0.32;49.93
78206;BME280;67480;48.920;12.880;2023-03-01T02:57:33;97675.91;;;-0.33;49.62
78206;BME280;67480;48.920;12.880;2023-03-01T03:00:03;97669.75;;;-0.45;50.48
78206;BME280;67480;48.920;12.880;2023-03-01T03:02:32;97659.81;;;-0.31;50.38
78206;BME280;67480;48.920;12.880;2023-03-01T03:05:19;97666.00;;;-0.37;50.13
78206;BME280;67480;48.920;12.880;2023-03-01T03:07:46;97671.56;;;-0.76;51.52
78206;BME280;67480;48.920;12.880;2023-03-01T03:10:28;97658.47;;;-0.52;50.92
78206;BME280;67480;48.920;12.880;2023-03-01T03:13:00;97675.97;;;-0.51;50.19
78206;BME280;67480;48.920;12.880;2023-03-01T03:15:26;97675.78;;;-0.56;50.64
78206;BME280;67480;48.920;12.880;2023-03-01T03:17:53;97668.78;;;-0.62;51.03
78206;BME280;67480;48.920;12.880;2023-03-01T03:20:20;97673.34;;;-0.70;51.02
78206;BME280;67480;48.920;12.880;2023-03-01T03:22:48;97662.75;;;-0.70;51.34
78206;BME280;67480;48.920;12.880;2023-03-01T03:25:15;97669.22;;;-0.65;51.29
78206;BME280;67480;48.920;12.880;2023-03-01T03:27:42;97669.84;;;-0.82;51.17
78206;BME280;67480;48.920;12.880;2023-03-01T03:30:11;97668.78;;;-0.81;51.56
78206;BME280;67480;48.920;12.880;2023-03-01T03:32:38;97663.41;;;-0.74;52.19
78206;BME280;67480;48.920;12.880;2023-03-01T03:35:05;97665.63;;;-0.71;51.39
78206;BME280;67480;48.920;12.880;2023-03-01T03:37:40;97669.88;;;-0.70;51.99
78206;BME280;67480;48.920;12.880;2023-03-01T03:40:24;97665.50;;;-0.76;52.11
78206;BME280;67480;48.920;12.880;2023-03-01T03:42:50;97659.63;;;-0.78;52.37
78206;BME280;67480;48.920;12.880;2023-03-01T03:45:18;97662.19;;;-0.72;51.75
78206;BME280;67480;48.920;12.880;2023-03-01T03:47:44;97672.13;;;-1.04;52.46
78206;BME280;67480;48.920;12.880;2023-03-01T03:50:14;97665.38;;;-1.00;52.09
78206;BME280;67480;48.920;12.880;2023-03-01T03:52:40;97660.94;;;-0.88;52.56
78206;BME280;67480;48.920;12.880;2023-03-01T03:55:07;97660.03;;;-0.93;52.21
78206;BME280;67480;48.920;12.880;2023-03-01T03:57:42;97654.44;;;-1.04;53.32
78206;BME280;67480;48.920;12.880;2023-03-01T04:00:10;97647.03;;;-1.13;52.70
78206;BME280;67480;48.920;12.880;2023-03-01T04:02:41;97649.16;;;-1.04;51.97
78206;BME280;67480;48.920;12.880;2023-03-01T04:05:09;97638.88;;;-1.12;52.34
78206;BME280;67480;48.920;12.880;2023-03-01T04:07:35;97655.03;;;-1.38;52.75
78206;BME280;67480;48.920;12.880;2023-03-01T04:10:03;97646.81;;;-1.12;51.35
78206;BME280;67480;48.920;12.880;2023-03-01T04:12:28;97635.22;;;-1.11;51.97
78206;BME280;67480;48.920;12.880;2023-03-01T04:14:53;97635.22;;;-1.11;50.99
78206;BME280;67480;48.920;12.880;2023-03-01T04:17:19;97622.38;;;-1.07;51.07
78206;BME280;67480;48.920;12.880;2023-03-01T04:19:44;97618.97;;;-0.96;50.55
78206;BME280;67480;48.920;12.880;2023-03-01T04:22:13;97621.88;;;-0.86;50.86
78206;BME280;67480;48.920;12.880;2023-03-01T04:24:46;97623.16;;;-0.88;50.43
78206;BME280;67480;48.920;12.880;2023-03-01T04:27:11;97628.53;;;-0.95;50.73
78206;BME280;67480;48.920;12.880;2023-03-01T04:29:36;97625.94;;;-0.83;49.21
78206;BME280;67480;48.920;12.880;2023-03-01T04:32:02;97627.72;;;-0.65;48.61
78206;BME280;67480;48.920;12.880;2023-03-01T04:34:28;97630.50;;;-0.60;48.73
78206;BME280;67480;48.920;12.880;2023-03-01T04:36:54;97638.97;;;-0.70;48.34
78206;BME280;67480;48.920;12.880;2023-03-01T04:39:19;97625.88;;;-0.64;47.76
78206;BME280;67480;48.920;12.880;2023-03-01T04:41:44;97621.53;;;-0.59;46.73
78206;BME280;67480;48.920;12.880;2023-03-01T04:44:10;97622.44;;;-0.35;47.26
78206;BME280;67480;48.920;12.880;2023-03-01T04:46:36;97617.47;;;-0.31;46.92
78206;BME280;67480;48.920;12.880;2023-03-01T04:49:02;97615.84;;;-0.32;46.54
78206;BME280;67480;48.920;12.880;2023-03-01T04:51:28;97608.13;;;-0.45;45.70
78206;BME280;67480;48.920;12.880;2023-03-01T04:53:53;97608.75;;;-0.32;45.82
78206;BME280;67480;48.920;12.880;2023-03-01T04:56:18;97605.41;;;-0.27;46.02
78206;BME280;67480;48.920;12.880;2023-03-01T04:58:44;97600.81;;;-0.20;45.77
78206;BME280;67480;48.920;12.880;2023-03-01T05:01:17;97598.19;;;-0.20;45.43
78206;BME280;67480;48.920;12.880;2023-03-01T05:03:48;97600.72;;;-0.25;45.75
78206;BME280;67480;48.920;12.880;2023-03-01T05:06:14;97599.56;;;-0.17;45.57
78206;BME280;67480;48.920;12.880;2023-03-01T05:08:41;97607.38;;;-0.11;45.70
78206;BME280;67480;48.920;12.880;2023-03-01T05:11:07;97603.38;;;-0.13;44.53
78206;BME280;67480;48.920;12.880;2023-03-01T05:13:37;97608.31;;;-0.17;45.17
78206;BME280;67480;48.920;12.880;2023-03-01T05:16:04;97607.34;;;-0.34;45.22
78206;BME280;67480;48.920;12.880;2023-03-01T05:18:32;97609.56;;;-0.19;45.42
78206;BME280;67480;48.920;12.880;2023-03-01T05:21:07;97615.41;;;-0.29;45.08
78206;BME280;67480;48.920;12.880;2023-03-01T05:23:32;97605.84;;;-0.42;45.49
78206;BME280;67480;48.920;12.880;2023-03-01T05:25:59;97602.63;;;-0.32;45.40
78206;BME280;67480;48.920;12.880;2023-03-01T05:28:26;97603.91;;;-0.35;45.93
78206;BME280;67480;48.920;12.880;2023-03-01T05:30:51;97592.50;;;-0.35;46.30
78206;BME280;67480;48.920;12.880;2023-03-01T05:33:17;97597.91;;;-0.42;45.49
78206;BME280;67480;48.920;12.880;2023-03-01T05:35:44;97595.53;;;-0.32;45.44
78206;BME280;67480;48.920;12.880;2023-03-01T05:38:11;97592.50;;;-0.35;44.96
78206;BME280;67480;48.920;12.880;2023-03-01T05:40:44;97590.59;;;-0.28;45.16
78206;BME280;67480;48.920;12.880;2023-03-01T05:43:11;97585.41;;;-0.23;44.26
78206;BME280;67480;48.920;12.880;2023-03-01T05:45:37;97597.94;;;-0.30;44.95
78206;BME280;67480;48.920;12.880;2023-03-01T05:48:04;97592.06;;;-0.32;44.66
78206;BME280;67480;48.920;12.880;2023-03-01T05:50:33;97588.38;;;-0.31;44.35
78206;BME280;67480;48.920;12.880;2023-03-01T05:53:01;97587.59;;;-0.32;44.03
78206;BME280;67480;48.920;12.880;2023-03-01T05:55:28;97593.69;;;-0.19;44.42
78206;BME280;67480;48.920;12.880;2023-03-01T05:57:54;97593.34;;;-0.23;44.53
78206;BME280;67480;48.920;12.880;2023-03-01T06:00:20;97605.66;;;-0.17;43.80
78206;BME280;67480;48.920;12.880;2023-03-01T06:02:49;97601.63;;;-0.07;43.66
78206;BME280;67480;48.920;12.880;2023-03-01T06:05:14;97607.38;;;-0.11;43.71
78206;BME280;67480;48.920;12.880;2023-03-01T06:07:40;97602.09;;;-0.11;43.48
78206;BME280;67480;48.920;12.880;2023-03-01T06:10:07;97601.41;;;-0.18;44.00
78206;BME280;67480;48.920;12.880;2023-03-01T06:12:34;97612.78;;;-0.17;43.64
78206;BME280;67480;48.920;12.880;2023-03-01T06:14:59;97599.25;;;0.03;44.16
78206;BME280;67480;48.920;12.880;2023-03-01T06:17:25;97601.31;;;0.13;43.85
78206;BME280;67480;48.920;12.880;2023-03-01T06:19:50;97595.09;;;-0.05;44.53
78206;BME280;67480;48.920;12.880;2023-03-01T06:22:16;97601.50;;;-0.13;44.45
78206;BME280;67480;48.920;12.880;2023-03-01T06:24:41;97599.69;;;-0.12;43.90
78206;BME280;67480;48.920;12.880;2023-03-01T06:27:06;97595.88;;;-0.16;43.76
78206;BME280;67480;48.920;12.880;2023-03-01T06:29:31;97601.78;;;-0.02;43.49
78206;BME280;67480;48.920;12.880;2023-03-01T06:31:57;97608.56;;;0.17;44.16
78206;BME280;67480;48.920;12.880;2023-03-01T06:34:22;97599.69;;;0.12;44.91
78206;BME280;67480;48.920;12.880;2023-03-01T06:36:47;97602.56;;;-0.02;44.58
78206;BME280;67480;48.920;12.880;2023-03-01T06:39:13;97602.56;;;-0.14;45.34
78206;BME280;67480;48.920;12.880;2023-03-01T06:41:38;97599.22;;;-0.09;45.19
78206;BME280;67480;48.920;12.880;2023-03-01T06:44:03;97601.78;;;0.10;45.62
78206;BME280;67480;48.920;12.880;2023-03-01T06:46:28;97599.91;;;0.22;44.81
78206;BME280;67480;48.920;12.880;2023-03-01T06:48:54;97604.72;;;-0.11;45.31
78206;BME280;67480;48.920;12.880;2023-03-01T06:51:19;97604.03;;;-0.18;47.64
78206;BME280;67480;48.920;12.880;2023-03-01T06:53:46;97615.22;;;0.08;48.01
78206;BME280;67480;48.920;12.880;2023-03-01T06:56:11;97615.00;;;0.21;48.05
78206;BME280;67480;48.920;12.880;2023-03-01T06:58:37;97617.72;;;-0.09;48.70
78206;BME280;67480;48.920;12.880;2023-03-01T07:01:06;97612.47;;;0.27;48.41
78206;BME280;67480;48.920;12.880;2023-03-01T07:03:32;97616.94;;;0.38;48.05
78206;BME280;67480;48.920;12.880;2023-03-01T07:05:57;97605.34;;;0.39;47.36
78206;BME280;67480;48.920;12.880;2023-03-01T07:08:22;97599.22;;;0.50;47.95
78206;BME280;67480;48.920;12.880;2023-03-01T07:10:48;97608.50;;;1.05;46.59
78206;BME280;67480;48.920;12.880;2023-03-01T07:13:13;97610.16;;;1.52;45.84
78206;BME280;67480;48.920;12.880;2023-03-01T07:15:39;97607.44;;;1.64;45.82
78206;BME280;67480;48.920;12.880;2023-03-01T07:18:05;97604.22;;;1.62;46.06
78206;BME280;67480;48.920;12.880;2023-03-01T07:20:30;97609.44;;;1.40;46.20
78206;BME280;67480;48.920;12.880;2023-03-01T07:22:55;97601.44;;;1.85;45.39
78206;BME280;67480;48.920;12.880;2023-03-01T07:25:23;97601.38;;;1.97;45.33
78206;BME280;67480;48.920;12.880;2023-03-01T07:27:52;97608.28;;;2.15;44.94
78206;BME280;67480;48.920;12.880;2023-03-01T07:30:19;97606.16;;;2.34;44.69
78206;BME280;67480;48.920;12.880;2023-03-01T07:32:44;97607.94;;;2.68;43.47
78206;BME280;67480;48.920;12.880;2023-03-01T07:35:10;97602.13;;;2.71;43.77
78206;BME280;67480;48.920;12.880;2023-03-01T07:37:35;97610.84;;;2.88;43.27
78206;BME280;67480;48.920;12.880;2023-03-01T07:40:01;97613.19;;;2.85;43.08
78206;BME280;67480;48.920;12.880;2023-03-01T07:42:26;97612.06;;;3.25;42.36
78206;BME280;67480;48.920;12.880;2023-03-01T07:44:52;97615.03;;;2.62;43.68
78206;BME280;67480;48.920;12.880;2023-03-01T07:47:17;97604.56;;;3.22;42.92
78206;BME280;67480;48.920;12.880;2023-03-01T07:49:42;97603.19;;;3.68;41.95
78206;BME280;67480;48.920;12.880;2023-03-01T07:52:10;97601.75;;;3.88;40.70
78206;BME280;67480;48.920;12.880;2023-03-01T07:54:36;97596.94;;;4.22;41.06
78206;BME280;67480;48.920;12.880;2023-03-01T07:57:02;97598.94;;;4.42;39.87
78206;BME280;67480;48.920;12.880;2023-03-01T07:59:27;97599.38;;;4.29;40.31
78206;BME280;67480;48.920;12.880;2023-03-01T08:01:57;97593.38;;;4.49;40.21
78206;BME280;67480;48.920;12.880;2023-03-01T08:04:22;97600.19;;;4.72;39.42
78206;BME280;67480;48.920;12.880;2023-03-01T08:06:51;97601.66;;;4.47;38.95
78206;BME280;67480;48.920;12.880;2023-03-01T08:09:16;97599.22;;;5.04;38.35
78206;BME280;67480;48.920;12.880;2023-03-01T08:11:41;97595.31;;;5.37;37.93
78206;BME280;67480;48.920;12.880;2023-03-01T08:14:07;97593.44;;;5.38;38.10
78206;BME280;67480;48.920;12.880;2023-03-01T08:16:32;97584.94;;;5.67;38.15
78206;BME280;67480;48.920;12.880;2023-03-01T08:19:06;97580.41;;;5.67;36.94
78206;BME280;67480;48.920;12.880;2023-03-01T08:21:32;97587.09;;;5.96;36.71
78206;BME280;67480;48.920;12.880;2023-03-01T08:24:00;97584.16;;;5.97;36.79
78206;BME280;67480;48.920;12.880;2023-03-01T08:26:25;97586.53;;;5.42;37.40
78206;BME280;67480;48.920;12.880;2023-03-01T08:28:50;97587.63;;;5.77;37.79
78206;BME280;67480;48.920;12.880;2023-03-01T08:31:28;97592.72;;;5.94;36.93
78206;BME280;67480;48.920;12.880;2023-03-01T08:33:56;97585.44;;;6.46;36.15
78206;BME280;67480;48.920;12.880;2023-03-01T08:36:24;97589.69;;;6.57;35.78
78206;BME280;67480;48.920;12.880;2023-03-01T08:38:49;97594.63;;;7.00;35.03
78206;BME280;67480;48.920;12.880;2023-03-01T08:41:15;97589.16;;;7.20;34.76
78206;BME280;67480;48.920;12.880;2023-03-01T08:43:41;97579.91;;;7.52;34.31
78206;BME280;67480;48.920;12.880;2023-03-01T08:46:06;97576.16;;;7.03;34.74
78206;BME280;67480;48.920;12.880;2023-03-01T08:48:31;97571.94;;;6.82;35.55
78206;BME280;67480;48.920;12.880;2023-03-01T08:50:57;97566.28;;;7.44;35.06
78206;BME280;67480;48.920;12.880;2023-03-01T08:53:22;97557.94;;;7.90;34.36
78206;BME280;67480;48.920;12.880;2023-03-01T08:55:48;97552.94;;;8.07;33.04
78206;BME280;67480;48.920;12.880;2023-03-01T08:58:13;97557.75;;;7.36;34.26
78206;BME280;67480;48.920;12.880;2023-03-01T09:00:38;97548.88;;;7.81;33.49
78206;BME280;67480;48.920;12.880;2023-03-01T09:03:05;97546.28;;;8.05;33.03
78206;BME280;67480;48.920;12.880;2023-03-01T09:05:32;97544.56;;;8.14;32.57
78206;BME280;67480;48.920;12.880;2023-03-01T09:07:57;97539.44;;;8.66;32.27
78206;BME280;67480;48.920;12.880;2023-03-01T09:10:23;97535.63;;;8.72;31.90
78206;BME280;67480;48.920;12.880;2023-03-01T09:12:48;97532.88;;;8.77;31.28
78206;BME280;67480;48.920;12.880;2023-03-01T09:15:13;97526.56;;;8.68;31.78
78206;BME280;67480;48.920;12.880;2023-03-01T09:17:39;97527.56;;;9.15;31.04
78206;BME280;67480;48.920;12.880;2023-03-01T09:20:04;97528.03;;;9.41;29.80
78206;BME280;67480;48.920;12.880;2023-03-01T09:22:33;97522.41;;;9.57;30.03
78206;BME280;67480;48.920;12.880;2023-03-01T09:24:59;97529.03;;;9.27;29.68
78206;BME280;67480;48.920;12.880;2023-03-01T09:27:24;97535.56;;;8.77;30.47
78206;BME280;67480;48.920;12.880;2023-03-01T09:29:50;97540.34;;;9.42;31.12
78206;BME280;67480;48.920;12.880;2023-03-01T09:32:15;97527.78;;;9.57;30.02
78206;BME280;67480;48.920;12.880;2023-03-01T09:34:41;97533.44;;;9.55;29.89
78206;BME280;67480;48.920;12.880;2023-03-01T09:37:24;97525.31;;;9.22;30.12
78206;BME280;67480;48.920;12.880;2023-03-01T09:39:50;97518.56;;;9.25;30.13
78206;BME280;67480;48.920;12.880;2023-03-01T09:42:15;97522.34;;;9.43;30.40
78206;BME280;67480;48.920;12.880;2023-03-01T09:47:21;97522.72;;;10.02;29.45
78206;BME280;67480;48.920;12.880;2023-03-01T09:50:17;97507.13;;;9.85;29.12
78206;BME280;67480;48.920;12.880;2023-03-01T09:52:49;97511.69;;;10.18;28.86
78206;BME280;67480;48.920;12.880;2023-03-01T09:55:26;97507.31;;;10.36;28.92
78206;BME280;67480;48.920;12.880;2023-03-01T10:01:10;97502.81;;;10.73;28.66
78206;BME280;67480;48.920;12.880;2023-03-01T10:06:35;97492.06;;;11.23;29.11
78206;BME280;67480;48.920;12.880;2023-03-01T10:09:18;97487.19;;;12.02;27.70
78206;BME280;67480;48.920;12.880;2023-03-01T10:11:51;97484.66;;;11.51;27.46
78206;BME280;67480;48.920;12.880;2023-03-01T10:14:40;97484.00;;;11.68;27.95
78206;BME280;67480;48.920;12.880;2023-03-01T10:17:37;97484.75;;;11.60;27.29
78206;BME280;67480;48.920;12.880;2023-03-01T10:20:15;97475.44;;;11.66;27.92
78206;BME280;67480;48.920;12.880;2023-03-01T10:22:41;97475.66;;;11.78;27.82
78206;BME280;67480;48.920;12.880;2023-03-01T10:25:12;97472.00;;;11.29;28.26
78206;BME280;67480;48.920;12.880;2023-03-01T10:32:58;97474.81;;;11.24;28.51
78206;BME280;67480;48.920;12.880;2023-03-01T10:35:27;97463.97;;;11.60;28.25
78206;BME280;67480;48.920;12.880;2023-03-01T10:38:07;97459.47;;;11.78;27.75
78206;BME280;67480;48.920;12.880;2023-03-01T10:40:35;97464.00;;;12.23;27.53
78206;BME280;67480;48.920;12.880;2023-03-01T10:43:03;97463.19;;;12.23;27.57
78206;BME280;67480;48.920;12.880;2023-03-01T10:48:16;97451.28;;;12.99;26.45
78206;BME280;67480;48.920;12.880;2023-03-01T10:50:45;97446.19;;;12.88;27.06
78206;BME280;67480;48.920;12.880;2023-03-01T10:56:07;97440.63;;;13.02;26.41
78206;BME280;67480;48.920;12.880;2023-03-01T10:58:35;97443.78;;;12.69;26.93
78206;BME280;67480;48.920;12.880;2023-03-01T11:01:06;97432.19;;;12.78;27.23
78206;BME280;67480;48.920;12.880;2023-03-01T11:03:37;97430.06;;;13.71;26.97
78206;BME280;67480;48.920;12.880;2023-03-01T11:08:44;97424.13;;;13.95;25.39
78206;BME280;67480;48.920;12.880;2023-03-01T11:13:49;97420.19;;;14.22;25.28
78206;BME280;67480;48.920;12.880;2023-03-01T11:16:23;97416.81;;;14.25;24.98
78206;BME280;67480;48.920;12.880;2023-03-01T11:18:57;97399.38;;;14.44;25.21
78206;BME280;67480;48.920;12.880;2023-03-01T11:21:24;97408.09;;;14.49;25.39
78206;BME280;67480;48.920;12.880;2023-03-01T11:23:50;97394.91;;;13.71;26.29
78206;BME280;67480;48.920;12.880;2023-03-01T11:26:17;97391.59;;;14.12;25.46
78206;BME280;67480;48.920;12.880;2023-03-01T11:28:44;97384.59;;;14.62;25.66
78206;BME280;67480;48.920;12.880;2023-03-01T11:31:14;97386.06;;;14.60;25.61
78206;BME280;67480;48.920;12.880;2023-03-01T11:34:05;97378.88;;;14.34;25.18
78206;BME280;67480;48.920;12.880;2023-03-01T11:41:39;97368.97;;;14.89;25.19
78206;BME280;67480;48.920;12.880;2023-03-01T11:44:15;97367.75;;;15.32;24.37
78206;BME280;67480;48.920;12.880;2023-03-01T11:47:16;97361.41;;;14.95;24.93
78206;BME280;67480;48.920;12.880;2023-03-01T12:00:30;97331.47;;;16.72;23.70
78206;BME280;67480;48.920;12.880;2023-03-01T12:03:20;97335.66;;;16.05;23.13
78206;BME280;67480;48.920;12.880;2023-03-01T12:11:41;97317.19;;;15.98;23.89
78206;BME280;67480;48.920;12.880;2023-03-01T12:20:14;97305.53;;;16.34;23.70
78206;BME280;67480;48.920;12.880;2023-03-01T12:25:39;97298.56;;;15.59;25.07
78206;BME280;67480;48.920;12.880;2023-03-01T12:31:47;97290.03;;;16.23;24.49
78206;BME280;67480;48.920;12.880;2023-03-01T12:37:19;97277.59;;;15.35;26.04
78206;BME280;67480;48.920;12.880;2023-03-01T12:50:40;97271.09;;;15.03;25.75
78206;BME280;67480;48.920;12.880;2023-03-01T12:53:19;97278.31;;;14.65;26.58
78206;BME280;67480;48.920;12.880;2023-03-01T12:55:45;97270.97;;;15.70;25.34
78206;BME280;67480;48.920;12.880;2023-03-01T12:58:27;97269.97;;;15.74;25.24
78206;BME280;67480;48.920;12.880;2023-03-01T13:06:16;97270.06;;;15.78;25.11
78206;BME280;67480;48.920;12.880;2023-03-01T13:09:05;97266.47;;;15.49;25.30
78206;BME280;67480;48.920;12.880;2023-03-01T13:11:34;97258.19;;;15.70;25.04
78206;BME280;67480;48.920;12.880;2023-03-01T13:16:48;97257.91;;;16.12;25.88
78206;BME280;67480;48.920;12.880;2023-03-01T13:19:18;97264.91;;;16.26;25.13
78206;BME280;67480;48.920;12.880;2023-03-01T13:21:46;97259.44;;;15.60;25.60
78206;BME280;67480;48.920;12.880;2023-03-01T13:24:40;97259.19;;;15.28;26.13
78206;BME280;67480;48.920;12.880;2023-03-01T13:29:54;97256.97;;;15.68;26.16
78206;BME280;67480;48.920;12.880;2023-03-01T13:32:25;97258.44;;;16.30;25.77
78206;BME280;67480;48.920;12.880;2023-03-01T13:35:40;97267.63;;;16.66;25.07
78206;BME280;67480;48.920;12.880;2023-03-01T13:40:58;97269.25;;;16.14;25.10
78206;BME280;67480;48.920;12.880;2023-03-01T13:43:32;97257.28;;;16.03;26.00
78206;BME280;67480;48.920;12.880;2023-03-01T13:45:59;97260.81;;;16.72;25.16
78206;BME280;67480;48.920;12.880;2023-03-01T13:48:28;97266.00;;;16.78;25.09
78206;BME280;67480;48.920;12.880;2023-03-01T13:50:58;97268.97;;;16.44;25.28
78206;BME280;67480;48.920;12.880;2023-03-01T13:53:27;97269.59;;;16.00;25.55
78206;BME280;67480;48.920;12.880;2023-03-01T13:56:11;97259.50;;;16.13;26.31
78206;BME280;67480;48.920;12.880;2023-03-01T13:58:52;97262.66;;;15.29;26.72
78206;BME280;67480;48.920;12.880;2023-03-01T14:03:48;97259.69;;;15.09;27.29
78206;BME280;67480;48.920;12.880;2023-03-01T14:06:16;97253.94;;;14.99;27.67
78206;BME280;67480;48.920;12.880;2023-03-01T14:08:44;97266.25;;;15.08;27.14
78206;BME280;67480;48.920;12.880;2023-03-01T14:19:29;97246.78;;;15.52;27.04
78206;BME280;67480;48.920;12.880;2023-03-01T14:24:58;97253.03;;;14.61;28.04
78206;BME280;67480;48.920;12.880;2023-03-01T14:27:30;97248.81;;;14.85;28.47
78206;BME280;67480;48.920;12.880;2023-03-01T14:30:02;97256.75;;;14.35;28.56
78206;BME280;67480;48.920;12.880;2023-03-01T14:32:31;97260.84;;;14.12;28.63
78206;BME280;67480;48.920;12.880;2023-03-01T14:34:58;97251.84;;;14.50;29.07
78206;BME280;67480;48.920;12.880;2023-03-01T14:37:30;97247.00;;;14.34;28.82
78206;BME280;67480;48.920;12.880;2023-03-01T14:39:57;97249.72;;;13.15;30.21
78206;BME280;67480;48.920;12.880;2023-03-01T14:42:26;97247.56;;;13.77;29.39
78206;BME280;67480;48.920;12.880;2023-03-01T14:44:54;97249.06;;;14.38;30.02
78206;BME280;67480;48.920;12.880;2023-03-01T14:47:28;97257.16;;;14.16;28.82
78206;BME280;67480;48.920;12.880;2023-03-01T14:50:10;97250.16;;;14.15;28.95